Time;durP1;ratioP1;P1;durP2;ratioP2;P2;SDS_P1;SDS_P2;PMS_P1;PMS_P2;Temp;Humidity;BMP_temperature;BMP_pressure;BME280_temperature;BME280_humidity;BME280_pressure;Samples;Min_cycle;Max_cycle;Signal;HPM_P1;HPM_P2
2023/02/18 00:00:25;;;;;;;2.73;2.40;;;12.00;99.90;;;;;;5033769;28;20182;-88
2023/02/18 00:02:51;;;;;;;2.80;2.60;;;12.10;99.90;;;;;;5037383;28;20216;-88
2023/02/18 00:05:16;;;;;;;2.93;2.73;;;12.10;99.90;;;;;;5040075;28;20192;-88
2023/02/18 00:07:42;;;;;;;2.90;2.70;;;12.10;99.90;;;;;;5040457;28;20186;-87
2023/02/18 00:10:11;;;;;;;2.97;2.77;;;12.20;99.90;;;;;;5040957;28;20652;-87
2023/02/18 00:12:37;;;;;;;3.30;3.00;;;12.10;99.90;;;;;;5039836;28;20854;-88
2023/02/18 00:15:03;;;;;;;3.20;2.90;;;12.10;99.90;;;;;;5038031;28;20188;-87
2023/02/18 00:17:29;;;;;;;2.97;2.70;;;12.10;99.90;;;;;;5027421;28;20681;-88
2023/02/18 00:19:56;;;;;;;3.17;2.87;;;12.10;99.90;;;;;;5018867;28;20210;-87
2023/02/18 00:22:22;;;;;;;3.40;3.10;;;12.10;99.90;;;;;;5018881;28;20237;-87
2023/02/18 00:24:48;;;;;;;3.13;2.83;;;12.10;99.90;;;;;;5017690;28;20194;-88
2023/02/18 00:27:13;;;;;;;3.40;3.10;;;12.20;99.90;;;;;;5018920;28;20277;-88
2023/02/18 00:29:39;;;;;;;3.30;3.00;;;12.10;99.90;;;;;;5017836;28;20265;-88
2023/02/18 00:32:05;;;;;;;3.50;3.00;;;12.10;99.90;;;;;;5018962;28;20588;-90
2023/02/18 00:34:30;;;;;;;2.87;2.67;;;12.10;99.90;;;;;;5019294;28;20225;-90
2023/02/18 00:36:57;;;;;;;3.50;3.17;;;12.10;99.90;;;;;;5018466;28;20871;-87
2023/02/18 00:39:22;;;;;;;3.50;3.20;;;12.20;99.90;;;;;;5024240;28;20208;-88
2023/02/18 00:41:48;;;;;;;3.00;2.80;;;12.10;99.90;;;;;;5037506;28;20179;-88
2023/02/18 00:44:14;;;;;;;3.00;2.80;;;12.10;99.90;;;;;;5037483;28;20289;-89
2023/02/18 00:46:39;;;;;;;3.20;3.00;;;12.00;99.90;;;;;;5036584;28;20252;-88
2023/02/18 00:49:06;;;;;;;3.40;3.07;;;12.10;99.90;;;;;;5036107;28;20198;-88
2023/02/18 00:51:32;;;;;;;3.10;2.90;;;12.00;99.90;;;;;;5037193;28;20179;-90
2023/02/18 00:53:58;;;;;;;3.67;3.37;;;12.10;99.90;;;;;;5036693;28;20222;-88
2023/02/18 00:56:24;;;;;;;3.60;3.30;;;12.20;99.90;;;;;;5036350;28;20178;-88
2023/02/18 00:58:50;;;;;;;3.57;3.30;;;12.10;99.90;;;;;;5036493;28;20233;-89
2023/02/18 01:01:17;;;;;;;3.87;3.50;;;12.00;99.90;;;;;;5034857;28;20655;-88
2023/02/18 01:03:42;;;;;;;4.10;3.73;;;12.00;99.90;;;;;;5036516;28;20226;-88
2023/02/18 01:06:11;;;;;;;3.23;2.93;;;12.10;99.90;;;;;;5036284;28;20181;-88
2023/02/18 01:08:38;;;;;;;4.07;3.63;;;12.20;99.90;;;;;;5025467;28;20211;-88
2023/02/18 01:11:04;;;;;;;3.60;3.30;;;12.10;99.90;;;;;;5021785;28;20204;-89
2023/02/18 01:13:30;;;;;;;4.33;3.60;;;12.10;99.90;;;;;;5032903;28;20259;-88
2023/02/18 01:15:56;;;;;;;4.00;3.70;;;12.00;99.90;;;;;;5038231;28;20649;-89
2023/02/18 01:18:25;;;;;;;3.90;3.60;;;12.00;99.90;;;;;;5018842;28;20206;-88
2023/02/18 01:20:50;;;;;;;3.57;3.27;;;11.90;99.90;;;;;;5017641;28;20198;-85
2023/02/18 01:23:16;;;;;;;3.77;3.43;;;11.90;99.90;;;;;;5016992;28;20202;-88
2023/02/18 01:25:42;;;;;;;4.27;3.87;;;12.00;99.90;;;;;;5018433;28;20179;-88
2023/02/18 01:28:11;;;;;;;4.03;3.67;;;11.90;99.90;;;;;;5024849;28;20183;-90
2023/02/18 01:30:36;;;;;;;4.20;3.90;;;11.90;99.90;;;;;;5052919;28;20190;-91
2023/02/18 01:33:02;;;;;;;3.67;3.37;;;11.90;99.90;;;;;;5051384;28;20274;-90
2023/02/18 01:35:28;;;;;;;4.40;4.00;;;11.90;99.90;;;;;;5049919;28;20175;-90
2023/02/18 01:37:53;;;;;;;4.20;3.80;;;11.90;99.90;;;;;;5037165;28;20183;-87
2023/02/18 01:40:22;;;;;;;4.10;3.77;;;11.90;99.90;;;;;;5035884;28;20239;-87
2023/02/18 01:42:48;;;;;;;4.17;3.57;;;11.90;99.90;;;;;;5036225;28;20571;-89
2023/02/18 01:45:32;;;;;;;5.23;4.20;;;11.90;99.90;;;;;;5034292;28;20186;-88
2023/02/18 01:48:14;;;;;;;4.67;4.27;;;11.90;99.90;;;;;;5035864;28;20626;-89
2023/02/18 01:50:52;;;;;;;4.27;3.70;;;11.90;99.90;;;;;;5037438;28;20182;-90
2023/02/18 01:53:30;;;;;;;4.60;4.20;;;11.90;99.90;;;;;;5041419;28;20401;-92
2023/02/18 01:55:57;;;;;;;4.67;4.20;;;11.80;99.90;;;;;;5055752;28;20158;-91
2023/02/18 01:58:23;;;;;;;4.83;4.40;;;11.80;99.90;;;;;;5057832;28;20217;-90
2023/02/18 02:00:49;;;;;;;4.60;4.20;;;11.80;99.90;;;;;;5060251;28;20173;-89
2023/02/18 02:03:14;;;;;;;4.93;4.43;;;11.80;99.90;;;;;;5042921;28;20214;-87
2023/02/18 02:05:40;;;;;;;4.80;4.37;;;11.70;99.90;;;;;;5042506;28;20191;-86
2023/02/18 02:08:06;;;;;;;4.70;4.30;;;11.80;99.90;;;;;;5041332;28;20194;-87
2023/02/18 02:10:47;;;;;;;4.60;4.23;;;11.70;99.90;;;;;;5040939;28;20185;-89
2023/02/18 02:13:35;;;;;;;4.87;4.47;;;11.70;99.90;;;;;;5023500;28;20759;-89
2023/02/18 02:16:15;;;;;;;5.10;4.60;;;11.60;99.90;;;;;;5021763;28;20183;-88
2023/02/18 02:18:57;;;;;;;5.20;4.70;;;11.70;99.90;;;;;;5038130;28;20205;-87
2023/02/18 02:22:16;;;;;;;4.63;4.23;;;11.60;99.90;;;;;;5031109;28;20182;-88
2023/02/18 02:25:00;;;;;;;4.63;4.23;;;11.70;99.90;;;;;;4983665;28;20225;-88
2023/02/18 02:27:44;;;;;;;5.40;5.00;;;11.70;99.90;;;;;;5017044;28;20279;-90
2023/02/18 02:30:22;;;;;;;5.33;4.90;;;11.70;99.90;;;;;;5029312;28;20210;-89
2023/02/18 02:33:06;;;;;;;5.57;5.00;;;11.60;99.90;;;;;;5040584;28;20296;-89
2023/02/18 02:35:53;;;;;;;5.60;5.10;;;11.70;99.90;;;;;;5022979;28;20225;-90
2023/02/18 02:38:43;;;;;;;5.23;4.73;;;11.50;99.90;;;;;;5020278;28;20170;-89
2023/02/18 02:41:23;;;;;;;5.33;4.83;;;11.50;99.90;;;;;;5017906;28;20210;-88
2023/02/18 02:44:14;;;;;;;5.33;4.90;;;11.50;99.90;;;;;;5025614;28;20193;-89
2023/02/18 02:46:44;;;;;;;5.17;4.77;;;11.50;99.90;;;;;;5038918;28;20188;-88
2023/02/18 02:49:22;;;;;;;6.20;5.30;;;11.50;99.90;;;;;;5039513;28;20181;-88
2023/02/18 02:52:09;;;;;;;6.07;5.47;;;11.50;99.90;;;;;;5040295;28;20178;-87
2023/02/18 02:54:35;;;;;;;5.80;5.30;;;11.40;99.90;;;;;;5038124;28;20208;-88
2023/02/18 02:57:06;;;;;;;5.70;5.07;;;11.40;99.90;;;;;;5041486;28;20868;-90
2023/02/18 02:59:36;;;;;;;5.60;5.10;;;11.40;99.90;;;;;;5040164;28;20231;-87
2023/02/18 03:02:14;;;;;;;5.40;5.00;;;11.30;99.90;;;;;;5041347;28;20253;-89
2023/02/18 03:04:43;;;;;;;5.60;5.10;;;11.30;99.90;;;;;;5040270;28;20180;-88
2023/02/18 03:07:45;;;;;;;5.90;5.40;;;11.30;99.90;;;;;;5041306;28;20185;-88
2023/02/18 03:10:36;;;;;;;6.50;5.90;;;11.40;99.90;;;;;;5039286;28;20215;-87
2023/02/18 03:13:24;;;;;;;6.07;5.50;;;11.30;99.90;;;;;;5030248;28;20702;-89
2023/02/18 03:16:13;;;;;;;5.47;4.73;;;11.40;99.90;;;;;;5038901;28;20245;-89
2023/02/18 03:18:54;;;;;;;5.63;5.13;;;11.40;99.90;;;;;;5039442;28;20205;-88
2023/02/18 03:21:28;;;;;;;5.77;5.27;;;11.30;99.90;;;;;;5038609;28;20260;-88
2023/02/18 03:24:09;;;;;;;5.50;5.07;;;11.30;99.90;;;;;;5038222;28;20213;-87
2023/02/18 03:26:40;;;;;;;5.77;5.27;;;11.40;99.90;;;;;;5038081;28;20184;-89
2023/02/18 03:29:09;;;;;;;5.43;4.93;;;11.40;99.90;;;;;;5038543;28;20196;-89
2023/02/18 03:31:37;;;;;;;5.70;5.20;;;11.40;99.90;;;;;;5038904;28;20647;-88
2023/02/18 03:34:18;;;;;;;5.50;5.00;;;11.40;99.90;;;;;;5037588;28;20197;-88
2023/02/18 03:36:45;;;;;;;5.30;4.90;;;11.50;99.90;;;;;;5036787;28;20177;-87
2023/02/18 03:39:14;;;;;;;4.87;4.50;;;11.60;99.90;;;;;;5022945;28;20991;-86
2023/02/18 03:41:41;;;;;;;5.60;5.10;;;11.50;99.90;;;;;;5019299;28;20185;-87
2023/02/18 03:44:08;;;;;;;5.60;5.00;;;11.40;99.90;;;;;;5018781;28;20209;-89
2023/02/18 03:46:36;;;;;;;4.80;4.40;;;11.40;99.90;;;;;;5022641;28;20183;-88
2023/02/18 03:49:02;;;;;;;4.50;4.10;;;11.50;99.90;;;;;;5039467;28;20181;-88
2023/02/18 03:51:28;;;;;;;4.93;4.53;;;11.40;99.90;;;;;;5025397;28;20679;-88
2023/02/18 03:53:53;;;;;;;4.87;4.57;;;11.60;99.90;;;;;;5038550;28;20207;-88
2023/02/18 03:56:20;;;;;;;5.37;4.87;;;11.60;99.90;;;;;;5037523;28;20186;-88
2023/02/18 03:58:46;;;;;;;5.13;4.73;;;11.50;99.90;;;;;;5039269;28;20216;-87
2023/02/18 04:01:11;;;;;;;4.90;4.50;;;11.40;99.90;;;;;;5039656;28;20257;-88
2023/02/18 04:03:37;;;;;;;5.10;4.70;;;11.50;99.90;;;;;;5038751;28;20233;-87
2023/02/18 04:06:03;;;;;;;5.40;4.97;;;11.40;99.90;;;;;;5033104;28;20665;-89
2023/02/18 04:08:29;;;;;;;5.17;4.70;;;11.40;99.90;;;;;;5019828;28;20192;-87
2023/02/18 04:10:54;;;;;;;5.53;5.03;;;11.40;99.90;;;;;;5019065;28;20771;-87
2023/02/18 04:13:20;;;;;;;5.10;4.63;;;11.40;99.90;;;;;;5019951;28;20234;-89
2023/02/18 04:15:48;;;;;;;4.47;4.07;;;11.40;99.90;;;;;;5018842;28;20609;-88
2023/02/18 04:18:13;;;;;;;4.60;4.20;;;11.40;99.90;;;;;;5019139;28;20192;-87
2023/02/18 04:20:39;;;;;;;4.97;4.57;;;11.40;99.90;;;;;;5019962;28;20549;-89
2023/02/18 04:23:05;;;;;;;5.33;4.83;;;11.40;99.90;;;;;;5017967;28;20625;-88
2023/02/18 04:25:31;;;;;;;4.93;4.53;;;11.40;99.90;;;;;;5017997;28;20260;-88
2023/02/18 04:27:57;;;;;;;4.83;4.43;;;11.40;99.90;;;;;;5018790;28;20181;-87
2023/02/18 04:30:22;;;;;;;4.90;4.30;;;11.50;99.90;;;;;;5017701;28;20212;-87
2023/02/18 04:32:48;;;;;;;4.70;4.40;;;11.40;99.90;;;;;;5015711;28;20819;-88
2023/02/18 04:35:14;;;;;;;5.23;4.73;;;11.40;99.90;;;;;;5016499;28;20243;-88
2023/02/18 04:37:40;;;;;;;4.80;4.40;;;11.30;99.90;;;;;;5018173;28;20215;-89
2023/02/18 04:40:06;;;;;;;5.13;4.63;;;11.30;99.90;;;;;;5030216;28;20211;-88
2023/02/18 04:42:32;;;;;;;4.77;4.40;;;11.30;99.90;;;;;;5037466;28;20189;-88
2023/02/18 04:44:57;;;;;;;4.83;4.50;;;11.40;99.90;;;;;;5036058;28;20182;-88
2023/02/18 04:47:23;;;;;;;5.17;4.77;;;11.20;99.90;;;;;;5036359;28;20192;-87
2023/02/18 04:49:49;;;;;;;4.87;4.47;;;11.30;99.90;;;;;;5037643;28;20212;-87
2023/02/18 04:52:15;;;;;;;5.10;4.57;;;11.30;99.90;;;;;;5038929;28;20213;-86
2023/02/18 04:54:40;;;;;;;4.93;4.53;;;11.30;99.90;;;;;;5030689;28;20205;-89
2023/02/18 04:57:06;;;;;;;4.83;4.43;;;11.30;99.90;;;;;;5019621;28;20175;-87
2023/02/18 04:59:32;;;;;;;5.00;4.60;;;11.30;99.90;;;;;;5035582;28;20201;-88
2023/02/18 05:01:57;;;;;;;4.27;3.80;;;11.40;99.90;;;;;;5036887;28;20253;-87
2023/02/18 05:04:23;;;;;;;4.73;4.27;;;11.40;99.90;;;;;;5026134;28;20485;-88
2023/02/18 05:06:49;;;;;;;4.70;4.30;;;11.30;99.90;;;;;;5017880;28;20216;-88
2023/02/18 05:09:14;;;;;;;5.13;4.63;;;11.30;99.90;;;;;;5030218;28;20267;-89
2023/02/18 05:11:41;;;;;;;4.87;4.43;;;11.20;99.90;;;;;;5022424;28;20321;-87
2023/02/18 05:14:07;;;;;;;5.17;4.47;;;11.30;99.90;;;;;;5022653;28;20193;-90
2023/02/18 05:16:32;;;;;;;4.97;4.30;;;11.20;99.90;;;;;;5038968;28;20184;-90
2023/02/18 05:18:59;;;;;;;5.03;4.13;;;11.30;99.90;;;;;;5038332;28;20205;-87
2023/02/18 05:21:24;;;;;;;4.50;4.10;;;11.30;99.90;;;;;;5036510;28;20185;-88
2023/02/18 05:23:50;;;;;;;4.23;3.93;;;11.10;99.90;;;;;;5037714;28;20861;-87
2023/02/18 05:26:16;;;;;;;4.63;4.23;;;11.10;99.90;;;;;;5036223;28;20237;-88
2023/02/18 05:28:41;;;;;;;4.87;4.47;;;11.10;99.90;;;;;;5035979;28;20216;-88
2023/02/18 05:31:07;;;;;;;4.93;4.43;;;11.10;99.90;;;;;;5036124;28;20201;-87
2023/02/18 05:33:33;;;;;;;4.10;3.70;;;11.10;99.90;;;;;;5037126;28;20235;-88
2023/02/18 05:35:58;;;;;;;4.30;3.90;;;11.20;99.90;;;;;;5038982;28;20188;-87
2023/02/18 05:38:24;;;;;;;4.23;3.83;;;11.30;99.90;;;;;;5039842;28;20197;-87
2023/02/18 05:40:50;;;;;;;4.07;3.77;;;11.30;99.90;;;;;;5040788;28;20184;-89
2023/02/18 05:43:16;;;;;;;4.00;3.70;;;11.30;99.90;;;;;;5040941;28;20212;-89
2023/02/18 05:45:42;;;;;;;4.10;3.80;;;11.30;99.90;;;;;;5041364;28;20185;-87
2023/02/18 05:48:07;;;;;;;4.67;4.27;;;11.40;99.90;;;;;;5041097;28;20198;-87
2023/02/18 05:50:33;;;;;;;4.20;3.80;;;11.40;99.90;;;;;;5043071;28;20242;-88
2023/02/18 05:52:59;;;;;;;4.20;3.90;;;11.40;99.90;;;;;;5041754;28;20255;-88
2023/02/18 05:55:25;;;;;;;4.10;3.70;;;11.30;99.90;;;;;;5042538;28;20178;-89
2023/02/18 05:57:51;;;;;;;3.93;3.60;;;11.40;99.90;;;;;;5041186;28;20181;-85
2023/02/18 06:00:17;;;;;;;3.80;3.50;;;11.40;99.90;;;;;;5039423;28;20920;-91
2023/02/18 06:02:43;;;;;;;3.57;3.30;;;11.40;99.90;;;;;;5039882;28;20278;-86
2023/02/18 06:05:09;;;;;;;3.87;3.57;;;11.50;99.90;;;;;;5040705;28;20204;-86
2023/02/18 06:07:34;;;;;;;4.17;3.57;;;11.40;99.90;;;;;;5041663;28;20242;-89
2023/02/18 06:10:01;;;;;;;4.47;4.07;;;11.40;99.90;;;;;;5038631;28;20243;-87
2023/02/18 06:12:26;;;;;;;5.23;3.70;;;11.40;99.90;;;;;;5052859;28;20204;-90
2023/02/18 06:14:52;;;;;;;4.10;3.80;;;11.40;99.90;;;;;;5055911;28;20178;-90
2023/02/18 06:17:18;;;;;;;4.00;3.70;;;11.40;99.90;;;;;;5040725;28;20182;-89
2023/02/18 06:19:44;;;;;;;3.90;3.60;;;11.50;99.90;;;;;;5035229;28;20250;-87
2023/02/18 06:22:10;;;;;;;3.87;3.57;;;11.50;99.90;;;;;;5039222;28;20235;-88
2023/02/18 06:24:36;;;;;;;3.90;3.60;;;11.50;99.90;;;;;;5039629;28;20609;-88
2023/02/18 06:27:03;;;;;;;4.10;3.70;;;11.60;99.90;;;;;;5040386;28;20203;-89
2023/02/18 06:29:30;;;;;;;4.10;3.63;;;11.60;99.90;;;;;;5040396;28;20188;-87
2023/02/18 06:31:59;;;;;;;3.90;3.60;;;11.50;99.90;;;;;;5039520;28;20208;-87
2023/02/18 06:34:25;;;;;;;4.20;3.80;;;11.60;99.90;;;;;;5040191;28;20206;-88
2023/02/18 06:36:51;;;;;;;3.70;3.40;;;11.50;99.90;;;;;;5039093;28;20169;-88
2023/02/18 06:39:17;;;;;;;3.93;3.53;;;11.50;99.90;;;;;;5039824;28;20200;-88
2023/02/18 06:44:17;;;;;;;4.10;3.70;;;11.60;99.90;;;;;;5038520;22;20240;-86
2023/02/18 06:46:43;;;;;;;3.37;3.07;;;11.70;99.90;;;;;;5012388;28;20185;-86
2023/02/18 06:49:09;;;;;;;3.77;3.47;;;11.70;99.90;;;;;;5031813;28;20175;-88
2023/02/18 06:51:34;;;;;;;3.60;3.30;;;11.70;99.90;;;;;;5033622;28;20205;-86
2023/02/18 06:54:00;;;;;;;3.60;3.30;;;11.80;99.90;;;;;;5033901;28;20264;-87
2023/02/18 06:56:26;;;;;;;3.60;3.30;;;11.70;99.90;;;;;;5030314;28;20183;-88
2023/02/18 06:58:51;;;;;;;4.33;3.63;;;11.80;99.90;;;;;;5029453;28;20212;-88
2023/02/18 07:01:17;;;;;;;3.50;3.20;;;11.70;99.90;;;;;;5028855;28;20238;-87
2023/02/18 07:03:43;;;;;;;3.70;3.40;;;11.70;99.90;;;;;;5029651;28;20192;-87
2023/02/18 07:06:08;;;;;;;3.93;3.10;;;11.70;99.90;;;;;;5028985;28;20781;-87
2023/02/18 07:08:36;;;;;;;3.83;3.53;;;11.70;99.90;;;;;;5042335;28;20260;-85
2023/02/18 07:11:02;;;;;;;3.60;3.30;;;11.80;99.90;;;;;;5051337;28;20184;-84
2023/02/18 07:13:28;;;;;;;3.67;3.43;;;11.80;99.90;;;;;;5050200;28;20309;-86
2023/02/18 07:15:53;;;;;;;4.07;3.77;;;11.80;99.90;;;;;;5048609;28;20266;-86
2023/02/18 07:18:19;;;;;;;3.53;3.23;;;11.80;99.90;;;;;;5049205;28;20291;-86
2023/02/18 07:20:46;;;;;;;3.67;3.37;;;11.90;99.90;;;;;;5037927;28;20174;-89
2023/02/18 07:23:11;;;;;;;4.67;3.60;;;12.00;99.90;;;;;;5038817;28;20210;-86
2023/02/18 07:25:37;;;;;;;3.50;3.20;;;12.00;99.90;;;;;;5047077;28;20181;-85
2023/02/18 07:28:02;;;;;;;3.33;3.10;;;12.10;99.90;;;;;;5047044;28;20205;-88
2023/02/18 07:30:28;;;;;;;3.73;3.30;;;12.10;99.70;;;;;;5035911;28;20258;-86
2023/02/18 07:32:54;;;;;;;3.37;3.10;;;12.10;99.50;;;;;;5029303;28;20224;-86
2023/02/18 07:35:20;;;;;;;3.77;3.47;;;12.10;99.60;;;;;;5045883;28;20194;-87
2023/02/18 07:37:49;;;;;;;3.37;3.07;;;12.20;99.40;;;;;;5037989;28;20302;-86
2023/02/18 07:40:19;;;;;;;4.80;2.97;;;12.00;99.90;;;;;;5049483;28;20298;-86
2023/02/18 07:42:45;;;;;;;3.17;2.97;;;12.20;99.60;;;;;;5050264;28;20212;-86
2023/02/18 07:45:11;;;;;;;3.40;2.80;;;12.10;99.20;;;;;;5049900;28;20182;-86
2023/02/18 07:47:37;;;;;;;6.00;3.17;;;12.10;99.80;;;;;;5022416;28;20204;-87
2023/02/18 07:50:05;;;;;;;4.07;3.10;;;12.10;98.90;;;;;;5030724;28;20194;-87
2023/02/18 07:52:30;;;;;;;3.20;3.00;;;12.20;98.20;;;;;;5029039;28;20207;-86
2023/02/18 07:54:56;;;;;;;3.87;3.13;;;12.20;99.30;;;;;;5028841;28;20182;-86
2023/02/18 07:57:22;;;;;;;3.40;2.80;;;12.20;99.90;;;;;;5028631;28;20184;-85
2023/02/18 07:59:47;;;;;;;3.50;3.20;;;12.30;97.80;;;;;;5030166;28;20211;-87
2023/02/18 08:02:21;;;;;;;2.97;2.67;;;12.30;97.40;;;;;;5029857;28;20191;-85
2023/02/18 08:04:47;;;;;;;3.13;2.93;;;12.30;96.80;;;;;;5033833;28;20195;-86
2023/02/18 08:07:15;;;;;;;4.30;3.00;;;12.20;98.00;;;;;;5030056;28;20337;-87
2023/02/18 08:09:41;;;;;;;3.57;3.27;;;12.30;97.70;;;;;;5035239;28;20593;-87
2023/02/18 08:12:07;;;;;;;3.47;3.17;;;12.40;96.90;;;;;;5030314;28;20559;-86
2023/02/18 08:14:33;;;;;;;3.60;2.77;;;12.40;96.30;;;;;;5011419;28;20183;-87
2023/02/18 08:16:59;;;;;;;3.10;2.80;;;12.50;96.00;;;;;;5027897;28;20222;-87
2023/02/18 08:19:24;;;;;;;3.40;3.10;;;12.50;95.70;;;;;;5029935;28;20279;-87
2023/02/18 08:21:50;;;;;;;3.50;3.20;;;12.50;95.80;;;;;;5011324;28;20187;-86
2023/02/18 08:24:16;;;;;;;3.97;3.03;;;12.60;95.50;;;;;;5035889;28;20214;-88
2023/02/18 08:26:41;;;;;;;2.90;2.57;;;12.60;94.80;;;;;;5020843;28;20188;-87
2023/02/18 08:29:07;;;;;;;3.00;2.80;;;12.70;93.40;;;;;;5047571;28;20184;-85
2023/02/18 08:31:33;;;;;;;6.50;3.10;;;12.70;94.20;;;;;;5047824;28;20200;-86
2023/02/18 08:33:59;;;;;;;4.20;2.80;;;12.70;93.60;;;;;;5048029;28;20198;-85
2023/02/18 08:36:26;;;;;;;2.90;2.70;;;12.70;93.70;;;;;;5029727;28;20178;-84
2023/02/18 08:38:53;;;;;;;3.97;2.80;;;12.70;93.30;;;;;;5012213;28;20270;-88
2023/02/18 08:41:19;;;;;;;4.23;3.83;;;12.70;93.90;;;;;;5028719;28;20191;-86
2023/02/18 08:43:46;;;;;;;3.23;2.93;;;12.60;93.70;;;;;;5035111;28;20221;-85
2023/02/18 08:46:12;;;;;;;2.90;2.70;;;12.70;93.80;;;;;;5048494;28;20182;-86
2023/02/18 08:48:38;;;;;;;2.67;2.47;;;12.80;92.90;;;;;;5032448;28;20192;-85
2023/02/18 08:51:11;;;;;;;6.23;4.77;;;12.80;92.40;;;;;;5027885;28;20602;-86
2023/02/18 08:53:37;;;;;;;4.03;2.57;;;12.90;91.90;;;;;;5028556;28;20629;-87
2023/02/18 08:56:07;;;;;;;3.03;2.80;;;12.80;92.50;;;;;;5046099;28;20252;-85
2023/02/18 08:58:36;;;;;;;3.83;3.53;;;12.90;92.00;;;;;;5046460;28;20207;-86
2023/02/18 09:01:06;;;;;;;2.87;2.67;;;12.90;91.90;;;;;;5039334;28;20186;-87
2023/02/18 09:03:33;;;;;;;2.70;2.50;;;12.90;91.90;;;;;;5027438;28;20234;-87
2023/02/18 09:06:00;;;;;;;3.67;2.60;;;12.80;92.70;;;;;;5027530;28;20246;-88
2023/02/18 09:08:26;;;;;;;3.60;2.90;;;12.70;93.50;;;;;;5024215;28;20651;-85
2023/02/18 09:11:00;;;;;;;3.03;2.60;;;12.70;93.40;;;;;;5027788;28;20181;-87
2023/02/18 09:13:26;;;;;;;2.90;2.53;;;12.80;94.00;;;;;;5040570;28;20195;-87
2023/02/18 09:16:07;;;;;;;2.77;2.57;;;12.80;93.80;;;;;;5046539;28;20240;-87
2023/02/18 09:18:34;;;;;;;4.13;2.63;;;12.80;92.70;;;;;;5045649;28;20211;-86
2023/02/18 09:21:00;;;;;;;3.80;2.90;;;12.90;93.60;;;;;;5024279;28;20180;-88
2023/02/18 09:23:29;;;;;;;3.60;2.80;;;12.90;92.00;;;;;;5026552;28;20196;-88
2023/02/18 09:25:55;;;;;;;3.80;2.50;;;13.10;90.20;;;;;;5026778;28;20170;-86
2023/02/18 09:28:22;;;;;;;4.20;2.60;;;13.10;90.10;;;;;;5027508;28;20251;-88
2023/02/18 09:30:47;;;;;;;5.20;2.23;;;13.20;89.90;;;;;;5021913;28;20184;-87
2023/02/18 09:33:13;;;;;;;2.87;2.67;;;13.20;89.40;;;;;;5039596;28;20305;-87
2023/02/18 09:35:43;;;;;;;4.43;2.87;;;13.20;91.00;;;;;;5045357;28;20251;-87
2023/02/18 09:38:11;;;;;;;4.77;2.67;;;13.30;87.20;;;;;;5046733;28;20180;-87
2023/02/18 09:40:41;;;;;;;3.53;3.00;;;13.30;86.50;;;;;;5044896;28;20203;-86
2023/02/18 09:43:12;;;;;;;3.07;2.87;;;13.40;85.70;;;;;;5042611;28;20211;-87
2023/02/18 09:45:38;;;;;;;3.00;2.60;;;13.40;86.50;;;;;;5027588;28;20181;-85
2023/02/18 09:48:04;;;;;;;2.97;2.77;;;13.40;85.40;;;;;;5028488;28;20237;-87
2023/02/18 09:50:32;;;;;;;2.73;2.53;;;13.40;86.10;;;;;;5029454;28;20209;-88
2023/02/18 09:53:00;;;;;;;3.20;2.47;;;13.40;86.20;;;;;;5028881;28;20242;-88
2023/02/18 09:55:32;;;;;;;3.07;2.70;;;13.30;86.30;;;;;;5028172;28;20262;-88
2023/02/18 09:58:12;;;;;;;3.00;2.70;;;13.40;85.80;;;;;;5028742;28;20186;-88
2023/02/18 10:00:45;;;;;;;2.60;2.40;;;13.30;86.10;;;;;;5048197;28;20208;-88
2023/02/18 10:03:14;;;;;;;2.97;2.67;;;13.40;85.00;;;;;;5048995;28;20196;-88
2023/02/18 10:06:00;;;;;;;5.43;2.50;;;13.50;85.50;;;;;;5034509;28;20181;-87
2023/02/18 10:08:30;;;;;;;3.00;2.50;;;13.50;86.40;;;;;;5014653;28;20199;-87
2023/02/18 10:10:56;;;;;;;3.17;2.90;;;13.40;86.20;;;;;;5045904;28;20168;-87
2023/02/18 10:13:24;;;;;;;3.60;2.93;;;13.40;86.50;;;;;;5039761;28;20544;-88
2023/02/18 10:15:51;;;;;;;2.80;2.60;;;13.40;86.70;;;;;;5037157;28;20261;-88
2023/02/18 10:18:57;;;;;;;2.93;2.73;;;13.50;85.80;;;;;;5041715;28;20330;-89
2023/02/18 10:21:30;;;;;;;3.27;2.97;;;13.40;85.50;;;;;;4955162;29;20195;-88
2023/02/18 10:24:00;;;;;;;2.90;2.70;;;13.40;86.50;;;;;;4962615;28;20218;-87
2023/02/18 10:26:27;;;;;;;2.73;2.53;;;13.40;85.90;;;;;;5005640;28;20196;-88
2023/02/18 10:28:53;;;;;;;3.17;2.97;;;13.40;86.20;;;;;;5028899;28;20195;-87
2023/02/18 10:31:30;;;;;;;4.67;2.60;;;13.30;87.20;;;;;;5024225;28;20183;-88
2023/02/18 10:34:16;;;;;;;3.10;2.63;;;13.40;86.30;;;;;;5023994;28;20200;-89
2023/02/18 10:37:00;;;;;;;2.93;2.73;;;13.30;87.00;;;;;;5037736;28;20231;-89
2023/02/18 10:39:31;;;;;;;4.03;2.90;;;13.30;88.20;;;;;;5043947;28;20258;-90
2023/02/18 10:42:09;;;;;;;2.90;2.60;;;13.30;88.30;;;;;;5029400;28;20201;-87
2023/02/18 10:44:55;;;;;;;3.13;2.70;;;13.30;87.20;;;;;;5022649;28;20238;-89
2023/02/18 10:47:41;;;;;;;3.33;3.03;;;13.50;87.90;;;;;;5021977;28;20172;-88
2023/02/18 10:50:32;;;;;;;5.90;5.50;;;13.50;88.80;;;;;;5031473;28;20184;-87
2023/02/18 10:53:09;;;;;;;3.50;3.20;;;13.60;88.10;;;;;;5043003;28;20220;-88
2023/02/18 10:55:42;;;;;;;3.43;3.13;;;13.70;87.00;;;;;;5044156;28;20188;-85
2023/02/18 10:58:29;;;;;;;4.03;3.63;;;13.80;86.90;;;;;;5042291;28;20176;-89
2023/02/18 11:00:54;;;;;;;3.93;3.63;;;13.90;86.70;;;;;;5043102;28;20203;-88
2023/02/18 11:03:25;;;;;;;4.17;3.30;;;13.90;86.20;;;;;;5046105;28;20211;-89
2023/02/18 11:05:55;;;;;;;3.70;3.40;;;13.90;85.20;;;;;;5028697;28;20242;-90
2023/02/18 11:08:25;;;;;;;4.97;3.37;;;13.90;84.30;;;;;;5037800;28;20673;-87
2023/02/18 11:10:51;;;;;;;3.53;3.23;;;14.00;83.80;;;;;;5008479;28;20200;-88
2023/02/18 11:13:26;;;;;;;3.60;3.30;;;14.00;83.40;;;;;;5025595;28;20193;-88
2023/02/18 11:15:56;;;;;;;3.87;3.37;;;14.20;83.80;;;;;;5027281;28;20547;-89
2023/02/18 11:18:39;;;;;;;3.63;3.33;;;14.20;83.50;;;;;;5028477;28;20315;-88
2023/02/18 11:21:29;;;;;;;3.70;3.50;;;14.30;81.30;;;;;;5033155;28;20193;-87
2023/02/18 11:23:56;;;;;;;3.67;3.37;;;14.40;81.60;;;;;;5031641;28;20214;-87
2023/02/18 11:26:33;;;;;;;3.40;3.10;;;14.50;79.50;;;;;;5046612;28;20181;-88
2023/02/18 11:29:21;;;;;;;3.50;3.17;;;14.50;80.60;;;;;;5042494;28;20635;-87
2023/02/18 11:31:50;;;;;;;3.17;2.97;;;14.50;79.50;;;;;;5036090;28;20261;-86
2023/02/18 11:34:21;;;;;;;3.53;3.23;;;14.60;80.10;;;;;;5029053;28;20245;-88
2023/02/18 11:36:49;;;;;;;4.07;2.70;;;14.60;79.00;;;;;;5027724;28;20180;-86
2023/02/18 11:39:25;;;;;;;4.77;4.47;;;14.50;79.40;;;;;;5016044;28;20213;-87
2023/02/18 11:42:06;;;;;;;3.60;3.30;;;14.50;79.50;;;;;;5048052;28;20186;-87
2023/02/18 11:44:44;;;;;;;3.90;3.50;;;14.40;81.00;;;;;;5038099;28;20216;-87
2023/02/18 11:47:13;;;;;;;3.77;3.47;;;14.40;82.40;;;;;;5040553;28;20203;-86
2023/02/18 11:49:40;;;;;;;3.67;3.37;;;14.30;82.90;;;;;;5051564;28;20180;-86
2023/02/18 11:52:25;;;;;;;4.30;3.87;;;14.30;83.50;;;;;;5051284;28;20169;-86
2023/02/18 11:55:09;;;;;;;4.10;3.80;;;14.30;84.50;;;;;;5042171;28;20180;-87
2023/02/18 11:57:38;;;;;;;4.40;4.00;;;14.30;84.80;;;;;;5037976;28;20587;-87
2023/02/18 12:00:33;;;;;;;6.87;3.87;;;14.20;85.20;;;;;;5037211;28;20198;-86
2023/02/18 12:03:01;;;;;;;4.57;4.17;;;14.30;84.70;;;;;;5030799;28;20254;-87
2023/02/18 12:05:27;;;;;;;4.53;4.13;;;14.20;84.60;;;;;;5012523;28;20194;-88
2023/02/18 12:08:11;;;;;;;4.27;3.87;;;14.20;85.00;;;;;;5029571;28;20251;-86
2023/02/18 12:10:46;;;;;;;4.57;4.17;;;14.10;86.00;;;;;;5038686;28;20219;-87
2023/02/18 12:13:49;;;;;;;4.70;4.30;;;14.00;87.90;;;;;;5030256;28;20218;-87
2023/02/18 12:16:34;;;;;;;4.60;4.20;;;13.90;87.50;;;;;;5040926;28;20181;-86
2023/02/18 12:19:29;;;;;;;4.53;4.20;;;13.90;87.40;;;;;;5032135;28;20269;-86
2023/02/18 12:22:18;;;;;;;4.83;4.43;;;13.90;87.90;;;;;;5043650;28;20177;-85
2023/02/18 12:25:12;;;;;;;4.53;4.13;;;13.70;88.90;;;;;;5048970;28;20180;-87
2023/02/18 12:27:46;;;;;;;4.43;4.03;;;13.80;89.00;;;;;;5049222;28;20170;-86
2023/02/18 12:30:31;;;;;;;4.20;3.90;;;13.80;88.80;;;;;;5042150;28;20673;-86
2023/02/18 12:32:59;;;;;;;4.33;3.93;;;13.60;89.30;;;;;;5013184;28;20215;-87
2023/02/18 12:35:59;;;;;;;5.13;4.73;;;13.70;87.90;;;;;;5028300;28;20208;-85
2023/02/18 12:38:58;;;;;;;9.57;4.53;;;13.70;88.00;;;;;;4986852;28;20191;-86
2023/02/18 12:41:42;;;;;;;4.87;3.97;;;13.70;87.20;;;;;;5016208;28;20192;-87
2023/02/18 12:44:23;;;;;;;4.63;4.23;;;13.80;86.50;;;;;;5170717;22;20232;-87
2023/02/18 12:47:23;;;;;;;4.47;3.43;;;13.90;85.60;;;;;;5039532;28;20166;-87
2023/02/18 12:50:30;;;;;;;6.27;5.77;;;14.10;84.40;;;;;;5039000;28;20164;-88
2023/02/18 12:53:23;;;;;;;5.30;4.80;;;14.20;84.10;;;;;;5021001;28;20176;-87
2023/02/18 12:55:59;;;;;;;4.43;4.07;;;14.20;84.20;;;;;;5016829;28;20180;-87
2023/02/18 12:58:38;;;;;;;6.07;5.47;;;14.10;84.10;;;;;;5019691;28;20173;-90
2023/02/18 13:01:36;;;;;;;4.93;3.87;;;14.10;84.00;;;;;;5018431;28;20157;-89
2023/02/18 13:04:16;;;;;;;4.60;4.20;;;14.00;84.30;;;;;;4977172;28;20209;-88
2023/02/18 13:06:44;;;;;;;4.20;3.90;;;14.00;83.90;;;;;;5016661;28;20589;-88
2023/02/18 13:09:41;;;;;;;3.90;3.60;;;14.00;83.60;;;;;;5015982;28;20193;-87